createdAt,value
2018-07-25T00:00:59.866Z,8.47
2018-07-25T00:03:28.777Z,9.10
2018-07-25T00:05:57.426Z,10.00
2018-07-25T00:08:26.131Z,9.13
2018-07-25T00:10:55.606Z,8.53
2018-07-25T00:13:25.948Z,9.23
2018-07-25T00:15:54.746Z,9.13
2018-07-25T00:18:23.426Z,8.30
2018-07-25T00:20:52.203Z,8.77
2018-07-25T00:23:20.848Z,9.17
2018-07-25T00:25:49.571Z,8.60
2018-07-25T00:28:18.275Z,8.83
2018-07-25T00:30:46.982Z,9.10
2018-07-25T00:33:15.664Z,8.53
2018-07-25T00:35:44.373Z,10.33
2018-07-25T00:38:12.987Z,10.23
2018-07-25T00:40:41.716Z,8.73
2018-07-25T00:43:10.458Z,8.77
2018-07-25T00:45:39.315Z,8.83
2018-07-25T00:48:08.598Z,9.23
2018-07-25T00:50:37.319Z,9.47
2018-07-25T00:53:05.997Z,8.70
2018-07-25T00:55:34.628Z,10.70
2018-07-25T00:58:03.401Z,9.83
2018-07-25T01:00:32.130Z,9.47
2018-07-25T01:03:00.961Z,9.97
2018-07-25T01:05:29.703Z,9.30
2018-07-25T01:07:58.323Z,10.10
2018-07-25T01:10:27.296Z,11.00
2018-07-25T01:12:56.005Z,9.70
2018-07-25T01:15:24.656Z,10.07
2018-07-25T01:17:53.427Z,10.47
2018-07-25T01:20:22.252Z,10.43
2018-07-25T01:22:50.943Z,10.30
2018-07-25T01:25:19.652Z,13.17
2018-07-25T01:27:48.355Z,10.50
2018-07-25T01:30:17.055Z,10.47
2018-07-25T01:32:45.791Z,10.30
2018-07-25T01:35:14.428Z,10.40
2018-07-25T01:37:43.068Z,9.87
2018-07-25T01:40:11.712Z,9.70
2018-07-25T01:42:40.439Z,10.60
2018-07-25T01:45:09.196Z,10.67
2018-07-25T01:47:38.028Z,10.53
2018-07-25T01:50:06.998Z,11.17
2018-07-25T01:52:35.733Z,10.37
2018-07-25T01:55:04.965Z,10.10
2018-07-25T01:57:33.689Z,10.50
2018-07-25T02:00:02.381Z,12.83
2018-07-25T02:02:31.037Z,11.13
2018-07-25T02:04:59.725Z,10.37
2018-07-25T02:07:28.366Z,10.60
2018-07-25T02:09:57.024Z,10.80
2018-07-25T02:12:25.705Z,10.60
2018-07-25T02:14:54.361Z,10.40
2018-07-25T02:17:23.090Z,10.90
2018-07-25T02:19:51.714Z,12.63
2018-07-25T02:22:20.423Z,11.53
2018-07-25T02:24:49.526Z,11.40
2018-07-25T02:27:18.168Z,11.43
2018-07-25T02:29:46.952Z,11.40
2018-07-25T02:32:15.627Z,11.00
2018-07-25T02:34:44.232Z,11.03
2018-07-25T02:37:12.903Z,9.87
2018-07-25T02:39:42.136Z,10.33
2018-07-25T02:42:10.887Z,10.57
2018-07-25T02:44:39.633Z,10.47
2018-07-25T02:47:08.401Z,10.60
2018-07-25T02:49:37.166Z,10.43
2018-07-25T02:52:05.892Z,9.27
2018-07-25T02:54:34.534Z,9.47
2018-07-25T02:57:03.415Z,11.07
2018-07-25T02:59:32.022Z,10.33
2018-07-25T03:02:00.693Z,9.23
2018-07-25T03:04:29.374Z,11.20
2018-07-25T03:06:58.109Z,8.97
2018-07-25T03:09:26.845Z,9.67
2018-07-25T03:11:55.550Z,9.10
2018-07-25T03:14:24.272Z,9.30
2018-07-25T03:16:52.927Z,9.40
2018-07-25T03:19:21.631Z,8.77
2018-07-25T03:21:50.301Z,9.23
2018-07-25T03:24:18.993Z,8.67
2018-07-25T03:26:47.817Z,11.47
2018-07-25T03:29:16.577Z,9.57
2018-07-25T03:31:45.203Z,9.37
2018-07-25T03:34:13.914Z,10.27
2018-07-25T03:36:42.707Z,8.50
2018-07-25T03:39:11.338Z,8.50
2018-07-25T03:41:40.223Z,7.77
2018-07-25T03:44:08.844Z,9.00
2018-07-25T03:46:37.652Z,8.17
2018-07-25T03:49:06.330Z,9.00
2018-07-25T03:51:34.992Z,8.47
2018-07-25T03:54:03.761Z,8.10
2018-07-25T03:56:32.435Z,7.93
2018-07-25T03:59:01.040Z,8.67
2018-07-25T04:01:29.724Z,8.20
2018-07-25T04:03:58.473Z,7.43
2018-07-25T04:06:27.139Z,7.27
2018-07-25T04:08:55.803Z,7.47
2018-07-25T04:11:24.558Z,9.03
2018-07-25T04:13:53.230Z,8.03
2018-07-25T04:16:21.970Z,8.90
2018-07-25T04:18:51.100Z,7.90
2018-07-25T04:21:19.719Z,7.93
2018-07-25T04:23:48.364Z,8.13
2018-07-25T04:26:17.051Z,7.23
2018-07-25T04:28:45.701Z,8.00
2018-07-25T04:31:14.335Z,6.53
2018-07-25T04:33:43.261Z,6.80
2018-07-25T04:36:11.901Z,6.80
2018-07-25T04:38:40.548Z,6.17
2018-07-25T04:41:09.320Z,6.70
2018-07-25T04:43:37.958Z,6.37
2018-07-25T04:46:06.750Z,7.20
2018-07-25T04:48:35.490Z,7.03
2018-07-25T04:51:04.159Z,6.83
2018-07-25T04:53:32.912Z,6.97
2018-07-25T04:56:01.659Z,6.83
2018-07-25T04:58:30.655Z,6.33
2018-07-25T05:00:59.964Z,6.80
2018-07-25T05:03:28.668Z,6.23
2018-07-25T05:05:57.368Z,6.53
2018-07-25T05:08:26.119Z,5.73
2018-07-25T05:10:54.746Z,5.30
2018-07-25T05:13:23.587Z,5.20
2018-07-25T05:15:52.287Z,7.20
2018-07-25T05:18:20.906Z,5.27
2018-07-25T05:20:49.907Z,6.07
2018-07-25T05:23:18.629Z,5.53
2018-07-25T05:25:47.281Z,5.47
2018-07-25T05:28:16.051Z,6.07
2018-07-25T05:30:44.728Z,5.50
2018-07-25T05:33:13.464Z,5.50
2018-07-25T05:35:42.297Z,5.40
2018-07-25T05:38:11.013Z,5.80
2018-07-25T05:40:39.655Z,4.93
2018-07-25T05:43:08.353Z,4.70
2018-07-25T05:45:37.021Z,5.17
2018-07-25T05:48:05.715Z,5.40
2018-07-25T05:50:34.558Z,5.67
2018-07-25T05:53:03.265Z,4.53
2018-07-25T05:55:31.828Z,6.07
2018-07-25T05:58:00.630Z,4.90
2018-07-25T06:00:29.384Z,4.67
2018-07-25T06:02:58.155Z,4.37
2018-07-25T06:05:26.890Z,5.33
2018-07-25T06:07:55.586Z,4.73
2018-07-25T06:10:24.378Z,4.33
2018-07-25T06:12:53.300Z,4.30
2018-07-25T06:15:21.940Z,4.80
2018-07-25T06:17:50.577Z,4.50
2018-07-25T06:20:19.321Z,4.77
2018-07-25T06:22:48.102Z,4.30
2018-07-25T06:25:16.828Z,4.60
2018-07-25T06:27:46.257Z,7.07
2018-07-25T06:30:14.954Z,6.07
2018-07-25T06:32:43.647Z,5.53
2018-07-25T06:35:12.551Z,5.37
2018-07-25T06:37:41.184Z,6.20
2018-07-25T06:40:09.794Z,4.70
2018-07-25T06:42:38.566Z,4.87
2018-07-25T06:45:07.649Z,5.23
2018-07-25T06:47:36.698Z,4.60
2018-07-25T06:50:06.147Z,4.13
2018-07-25T06:52:34.843Z,4.30
2018-07-25T06:55:03.538Z,4.87
2018-07-25T06:57:32.199Z,4.70
2018-07-25T07:00:00.955Z,5.30
2018-07-25T07:02:29.599Z,4.40
2018-07-25T07:04:58.568Z,4.40
2018-07-25T07:07:27.398Z,5.13
2018-07-25T07:09:56.242Z,4.37
2018-07-25T07:12:25.103Z,4.67
2018-07-25T07:14:53.828Z,5.63
2018-07-25T07:17:22.540Z,4.50
2018-07-25T07:19:51.479Z,4.87
2018-07-25T07:22:20.071Z,5.13
2018-07-25T07:24:48.846Z,4.47
2018-07-25T07:27:17.614Z,4.37
2018-07-25T07:29:46.341Z,5.60
2018-07-25T07:32:15.092Z,4.07
2018-07-25T07:34:43.852Z,4.60
2018-07-25T07:37:12.661Z,4.63
2018-07-25T07:39:41.301Z,4.40
2018-07-25T07:42:10.076Z,6.83
2018-07-25T07:44:38.822Z,4.40
2018-07-25T07:47:07.635Z,4.37
2018-07-25T07:49:36.313Z,4.47
2018-07-25T07:52:05.029Z,4.47
2018-07-25T07:54:33.797Z,5.43
2018-07-25T07:57:02.544Z,7.90
2018-07-25T07:59:31.329Z,5.20
2018-07-25T08:02:00.139Z,4.77
2018-07-25T08:04:28.878Z,4.73
2018-07-25T08:06:57.631Z,4.37
2018-07-25T08:10:28.740Z,4.93
2018-07-25T08:12:57.719Z,4.80
2018-07-25T08:15:26.764Z,5.33
2018-07-25T08:17:55.486Z,4.93
2018-07-25T08:20:24.150Z,5.63
2018-07-25T08:22:52.845Z,5.80
2018-07-25T08:25:21.540Z,4.60
2018-07-25T08:27:50.263Z,6.40
2018-07-25T08:30:18.955Z,5.73
2018-07-25T08:32:47.684Z,5.07
2018-07-25T08:35:16.459Z,7.17
2018-07-25T08:37:45.311Z,5.20
2018-07-25T08:40:13.951Z,7.53
2018-07-25T08:42:42.856Z,4.40
2018-07-25T08:45:11.512Z,4.90
2018-07-25T08:47:40.108Z,5.00
2018-07-25T08:50:09.785Z,4.40
2018-07-25T08:52:38.950Z,5.00
2018-07-25T08:55:07.681Z,4.93
2018-07-25T08:57:36.402Z,5.63
2018-07-25T09:00:05.956Z,4.90
2018-07-25T09:02:34.698Z,5.57
2018-07-25T09:05:03.508Z,6.40
2018-07-25T09:07:32.285Z,5.13
2018-07-25T09:10:01.068Z,5.17
2018-07-25T09:12:29.742Z,7.83
2018-07-25T09:14:58.531Z,4.47
2018-07-25T09:17:27.283Z,4.40
2018-07-25T09:19:56.164Z,4.73
2018-07-25T09:22:24.910Z,5.00
2018-07-25T09:24:53.765Z,6.47
2018-07-25T09:27:22.544Z,6.07
2018-07-25T09:29:51.297Z,6.73
2018-07-25T09:32:19.974Z,4.70
2018-07-25T09:34:48.685Z,6.67
2018-07-25T09:37:17.499Z,5.07
2018-07-25T09:39:46.262Z,4.83
2018-07-25T09:42:14.936Z,5.13
2018-07-25T09:44:43.691Z,4.60
2018-07-25T09:47:12.407Z,5.87
2018-07-25T09:49:41.043Z,4.50
2018-07-25T09:52:09.882Z,4.50
2018-07-25T09:54:38.625Z,6.33
2018-07-25T09:57:07.373Z,6.63
2018-07-25T09:59:36.108Z,6.50
2018-07-25T10:02:04.742Z,4.60
2018-07-25T10:04:33.555Z,4.33
2018-07-25T10:07:02.199Z,5.00
2018-07-25T10:09:30.743Z,4.60
2018-07-25T10:11:59.380Z,4.73
2018-07-25T10:14:28.034Z,6.67
2018-07-25T10:16:56.892Z,4.97
2018-07-25T10:19:25.755Z,7.20
2018-07-25T10:21:54.500Z,4.77
2018-07-25T10:24:23.259Z,5.10
2018-07-25T10:26:51.986Z,5.20
2018-07-25T10:29:20.732Z,4.87
2018-07-25T10:31:49.379Z,5.40
2018-07-25T10:34:18.166Z,5.93
2018-07-25T10:36:46.873Z,4.87
2018-07-25T10:39:15.535Z,5.00
2018-07-25T10:41:44.451Z,6.43
2018-07-25T10:44:13.303Z,4.70
2018-07-25T10:46:42.619Z,5.73
2018-07-25T10:49:11.451Z,4.90
2018-07-25T10:51:40.216Z,6.23
2018-07-25T10:54:08.892Z,7.00
2018-07-25T10:56:37.525Z,4.60
2018-07-25T10:59:06.187Z,7.57
2018-07-25T11:01:34.906Z,4.47
2018-07-25T11:04:03.622Z,4.70
2018-07-25T11:06:32.301Z,4.27
2018-07-25T11:09:00.995Z,5.20
2018-07-25T11:11:30.500Z,5.13
2018-07-25T11:14:00.545Z,4.77
2018-07-25T11:16:29.449Z,5.83
2018-07-25T11:18:58.090Z,5.47
2018-07-25T11:21:26.895Z,5.27
2018-07-25T11:23:55.653Z,6.63
2018-07-25T11:26:24.383Z,5.47
2018-07-25T11:28:53.051Z,6.70
2018-07-25T11:31:21.880Z,4.73
2018-07-25T11:33:50.494Z,4.80
2018-07-25T11:36:19.185Z,3.87
2018-07-25T11:38:47.924Z,4.77
2018-07-25T11:41:16.672Z,6.00
2018-07-25T11:43:45.502Z,4.97
2018-07-25T11:46:14.192Z,3.80
2018-07-25T11:48:43.017Z,5.27
2018-07-25T11:51:11.706Z,6.27
2018-07-25T11:53:40.381Z,6.90
2018-07-25T11:56:09.040Z,5.27
2018-07-25T11:58:37.748Z,4.13
2018-07-25T12:01:06.494Z,4.63
2018-07-25T12:03:35.121Z,4.40
2018-07-25T12:06:03.811Z,8.43
2018-07-25T12:08:32.577Z,9.43
2018-07-25T12:11:01.358Z,4.17
2018-07-25T12:13:30.220Z,4.80
2018-07-25T12:15:58.938Z,6.50
2018-07-25T12:18:27.687Z,6.37
2018-07-25T12:20:56.568Z,4.03
2018-07-25T12:23:25.319Z,4.57
2018-07-25T12:25:54.003Z,7.17
2018-07-25T12:28:22.682Z,4.73
2018-07-25T12:30:51.397Z,4.73
2018-07-25T12:33:20.080Z,7.33
2018-07-25T12:35:48.972Z,5.03
2018-07-25T12:38:17.652Z,4.27
2018-07-25T12:40:46.283Z,4.03
2018-07-25T12:43:15.013Z,4.47
2018-07-25T12:45:43.982Z,4.07
2018-07-25T12:48:12.691Z,4.33
2018-07-25T12:50:41.413Z,5.20
2018-07-25T12:53:10.188Z,3.90
2018-07-25T12:55:38.915Z,4.57
2018-07-25T12:58:07.765Z,5.87
2018-07-25T13:00:36.527Z,3.87
2018-07-25T13:03:05.921Z,5.17
2018-07-25T13:05:34.632Z,5.53
2018-07-25T13:08:03.348Z,4.50
2018-07-25T13:10:32.158Z,5.40
2018-07-25T13:13:00.929Z,3.90
2018-07-25T13:15:29.641Z,6.40
2018-07-25T13:17:58.294Z,4.27
2018-07-25T13:20:27.073Z,5.83
2018-07-25T13:22:56.082Z,7.20
2018-07-25T13:25:24.745Z,6.53
2018-07-25T13:27:53.572Z,4.17
2018-07-25T13:30:22.375Z,5.30
2018-07-25T13:32:51.147Z,3.70
2018-07-25T13:35:19.840Z,6.83
2018-07-25T13:37:48.802Z,4.13
2018-07-25T13:40:17.515Z,3.37
2018-07-25T13:42:46.393Z,4.50
2018-07-25T13:45:15.151Z,8.60
2018-07-25T13:47:43.796Z,4.23
2018-07-25T13:50:12.528Z,4.03
2018-07-25T13:52:41.412Z,5.90
2018-07-25T13:55:10.093Z,3.03
2018-07-25T13:57:38.727Z,3.40
2018-07-25T14:00:09.293Z,3.33
2018-07-25T14:02:38.046Z,4.23
2018-07-25T14:05:07.057Z,4.87
2018-07-25T14:07:35.684Z,3.43
2018-07-25T14:10:04.929Z,6.40
2018-07-25T14:12:33.696Z,3.70
2018-07-25T14:15:02.523Z,3.57
2018-07-25T14:17:31.304Z,6.20
2018-07-25T14:20:00.039Z,3.27
2018-07-25T14:22:28.709Z,3.73
2018-07-25T14:24:57.792Z,5.60
2018-07-25T14:27:26.584Z,6.23
2018-07-25T14:29:55.255Z,2.93
2018-07-25T14:32:23.974Z,3.93
2018-07-25T14:34:52.919Z,4.57
2018-07-25T14:37:21.588Z,4.00
2018-07-25T14:39:50.536Z,3.77
2018-07-25T14:42:19.351Z,5.50
2018-07-25T14:44:48.183Z,3.90
2018-07-25T14:47:17.043Z,4.13
2018-07-25T14:49:45.871Z,3.63
2018-07-25T14:52:14.556Z,6.17
2018-07-25T14:54:43.243Z,3.47
2018-07-25T14:57:12.130Z,3.57
2018-07-25T14:59:40.959Z,4.43
2018-07-25T15:02:09.709Z,7.87
2018-07-25T15:04:38.443Z,3.30
2018-07-25T15:07:07.137Z,4.67
2018-07-25T15:09:35.851Z,4.37
2018-07-25T15:12:04.811Z,4.53
2018-07-25T15:14:33.531Z,8.07
2018-07-25T15:17:02.326Z,4.43
2018-07-25T15:19:30.951Z,7.20
2018-07-25T15:21:59.620Z,4.27
2018-07-25T15:24:28.334Z,3.53
2018-07-25T15:26:56.967Z,6.97
2018-07-25T15:29:25.709Z,3.87
2018-07-25T15:31:54.455Z,4.77
2018-07-25T15:34:23.179Z,3.30
2018-07-25T15:36:52.948Z,4.10
2018-07-25T15:39:22.835Z,3.80
2018-07-25T15:41:52.407Z,4.23
2018-07-25T15:44:22.097Z,3.40
2018-07-25T15:46:50.854Z,4.47
2018-07-25T15:49:20.101Z,3.83
2018-07-25T15:51:49.092Z,3.47
2018-07-25T15:54:17.891Z,6.40
2018-07-25T15:56:46.811Z,6.10
2018-07-25T15:59:15.589Z,5.17
2018-07-25T16:01:44.381Z,3.30
2018-07-25T16:04:13.112Z,3.53
2018-07-25T16:06:42.088Z,3.27
2018-07-25T16:09:12.327Z,3.77
2018-07-25T16:11:41.567Z,3.70
2018-07-25T16:14:10.305Z,6.87
2018-07-25T16:16:38.999Z,3.03
2018-07-25T16:19:07.815Z,4.40
2018-07-25T16:21:36.582Z,5.20
2018-07-25T16:24:05.315Z,5.63
2018-07-25T16:26:33.989Z,4.23
2018-07-25T16:29:03.147Z,4.57
2018-07-25T16:31:31.859Z,3.50
2018-07-25T16:34:00.599Z,3.70
2018-07-25T16:36:29.424Z,5.53
2018-07-25T16:38:58.414Z,5.23
2018-07-25T16:41:27.248Z,2.90
2018-07-25T16:43:56.072Z,5.77
2018-07-25T16:46:24.767Z,4.30
2018-07-25T16:48:53.498Z,3.20
2018-07-25T16:51:23.128Z,3.13
2018-07-25T16:53:51.806Z,4.27
2018-07-25T16:56:20.552Z,3.23
2018-07-25T16:58:49.305Z,4.33
2018-07-25T17:01:18.092Z,4.53
2018-07-25T17:03:46.780Z,3.37
2018-07-25T17:06:15.533Z,6.47
2018-07-25T17:08:44.234Z,5.40
2018-07-25T17:11:12.882Z,4.73
2018-07-25T17:13:41.726Z,5.40
2018-07-25T17:16:10.934Z,3.87
2018-07-25T17:18:39.588Z,3.47
2018-07-25T17:21:08.294Z,5.50
2018-07-25T17:23:37.008Z,3.67
2018-07-25T17:26:05.711Z,3.90
2018-07-25T17:28:34.415Z,3.43
2018-07-25T17:31:03.075Z,5.20
2018-07-25T17:33:31.846Z,4.20
2018-07-25T17:36:00.622Z,4.50
2018-07-25T17:38:29.476Z,3.13
2018-07-25T17:40:58.378Z,5.97
2018-07-25T17:43:27.000Z,3.80
2018-07-25T17:45:55.741Z,3.43
2018-07-25T17:48:24.476Z,4.33
2018-07-25T17:50:53.199Z,3.67
2018-07-25T17:53:22.224Z,3.00
2018-07-25T17:55:51.177Z,3.87
2018-07-25T17:58:19.872Z,4.23
2018-07-25T18:00:48.625Z,3.53
2018-07-25T18:03:17.386Z,3.07
2018-07-25T18:05:46.110Z,4.63
2018-07-25T18:08:14.746Z,3.10
2018-07-25T18:10:43.598Z,4.73
2018-07-25T18:14:18.506Z,4.20
2018-07-25T18:16:47.159Z,3.67
2018-07-25T18:19:16.609Z,3.03
2018-07-25T18:21:45.307Z,3.03
2018-07-25T18:24:14.362Z,5.10
2018-07-25T18:26:43.262Z,3.53
2018-07-25T18:29:12.124Z,4.43
2018-07-25T18:31:40.944Z,2.60
2018-07-25T18:34:09.677Z,4.13
2018-07-25T18:36:38.373Z,3.23
2018-07-25T18:39:10.069Z,3.87
2018-07-25T18:41:38.967Z,3.27
2018-07-25T18:44:07.817Z,3.47
2018-07-25T18:46:36.565Z,4.57
2018-07-25T18:49:05.352Z,3.50
2018-07-25T18:51:34.034Z,3.13
2018-07-25T18:54:02.900Z,4.57
2018-07-25T18:56:31.663Z,3.27
2018-07-25T18:59:00.408Z,6.73
2018-07-25T19:01:29.098Z,3.20
2018-07-25T19:03:58.002Z,3.30
2018-07-25T19:06:27.358Z,3.73
2018-07-25T19:08:56.047Z,6.20
2018-07-25T19:11:24.776Z,3.00
2018-07-25T19:13:58.612Z,5.03
2018-07-25T19:16:27.270Z,3.30
2018-07-25T19:18:56.051Z,3.87
2018-07-25T19:21:24.841Z,3.17
2018-07-25T19:23:53.606Z,4.50
2018-07-25T19:26:22.267Z,4.27
2018-07-25T19:28:50.965Z,3.13
2018-07-25T19:31:19.772Z,3.80
2018-07-25T19:33:48.422Z,5.40
2018-07-25T19:36:17.023Z,5.00
2018-07-25T19:38:45.646Z,4.67
2018-07-25T19:41:14.426Z,5.40
2018-07-25T19:43:43.082Z,4.53
2018-07-25T19:46:11.753Z,4.80
2018-07-25T19:48:40.448Z,4.30
2018-07-25T19:51:09.158Z,3.47
2018-07-25T19:53:37.917Z,4.97
2018-07-25T19:56:06.706Z,4.70
2018-07-25T19:58:35.326Z,5.80
2018-07-25T20:01:03.990Z,3.70
2018-07-25T20:03:32.665Z,6.23
2018-07-25T20:06:01.335Z,3.53
2018-07-25T20:08:29.983Z,3.50
2018-07-25T20:10:58.731Z,5.50
2018-07-25T20:13:31.320Z,5.10
2018-07-25T20:16:01.369Z,3.80
2018-07-25T20:18:30.725Z,4.63
2018-07-25T20:20:59.465Z,4.13
2018-07-25T20:23:28.655Z,4.17
2018-07-25T20:25:57.510Z,3.40
2018-07-25T20:28:26.419Z,4.93
2018-07-25T20:30:55.466Z,5.93
2018-07-25T20:33:24.112Z,7.50
2018-07-25T20:35:53.220Z,4.17
2018-07-25T20:38:21.872Z,4.33
2018-07-25T20:40:50.595Z,6.90
2018-07-25T20:43:19.466Z,4.27
2018-07-25T20:45:48.091Z,6.03
2018-07-25T20:48:16.896Z,5.93
2018-07-25T20:50:45.661Z,5.90
2018-07-25T20:53:14.366Z,3.80
2018-07-25T20:55:43.092Z,7.33
2018-07-25T20:58:12.174Z,4.73
2018-07-25T21:00:40.857Z,4.77
2018-07-25T21:03:09.480Z,6.70
2018-07-25T21:05:38.200Z,4.27
2018-07-25T21:08:07.007Z,5.13
2018-07-25T21:10:36.721Z,4.27
2018-07-25T21:13:05.555Z,5.17
2018-07-25T21:15:34.348Z,4.00
2018-07-25T21:18:03.017Z,5.00
2018-07-25T21:20:31.843Z,4.10
2018-07-25T21:23:00.683Z,5.17
2018-07-25T21:25:29.392Z,4.37
2018-07-25T21:27:58.288Z,4.70
2018-07-25T21:30:27.012Z,4.77
2018-07-25T21:32:55.844Z,4.93
2018-07-25T21:35:24.526Z,5.07
2018-07-25T21:37:53.597Z,7.73
2018-07-25T21:40:22.359Z,4.30
2018-07-25T21:42:51.160Z,7.03
2018-07-25T21:45:20.012Z,6.23
2018-07-25T21:47:48.647Z,4.27
2018-07-25T21:50:17.466Z,5.07
2018-07-25T21:52:46.263Z,4.23
2018-07-25T21:55:14.977Z,4.77
2018-07-25T21:57:43.657Z,4.43
2018-07-25T22:00:15.707Z,4.93
2018-07-25T22:02:45.795Z,4.50
2018-07-25T22:05:14.875Z,4.47
2018-07-25T22:07:44.383Z,4.30
2018-07-25T22:10:13.042Z,6.40
2018-07-25T22:12:41.900Z,5.07
2018-07-25T22:15:11.621Z,4.57
2018-07-25T22:17:40.286Z,5.73
2018-07-25T22:20:12.127Z,4.80
2018-07-25T22:22:41.220Z,5.23
2018-07-25T22:25:10.591Z,4.27
2018-07-25T22:27:39.926Z,4.33
2018-07-25T22:30:09.025Z,4.30
2018-07-25T22:32:37.745Z,5.57
2018-07-25T22:35:06.467Z,6.53
2018-07-25T22:37:35.149Z,4.73
2018-07-25T22:40:03.901Z,5.27
2018-07-25T22:42:32.719Z,4.90
2018-07-25T22:45:01.432Z,6.90
2018-07-25T22:47:30.067Z,6.60
2018-07-25T22:49:58.782Z,5.70
2018-07-25T22:52:27.467Z,4.60
2018-07-25T22:54:56.221Z,5.57
2018-07-25T22:57:24.898Z,4.97
2018-07-25T22:59:54.257Z,5.60
2018-07-25T23:02:22.914Z,5.33
2018-07-25T23:04:51.663Z,5.33
2018-07-25T23:07:20.282Z,5.50
2018-07-25T23:09:48.991Z,4.70
2018-07-25T23:12:17.600Z,5.43
2018-07-25T23:14:46.367Z,6.07
2018-07-25T23:17:15.013Z,5.17
2018-07-25T23:19:43.697Z,6.27
2018-07-25T23:22:12.310Z,4.30
2018-07-25T23:24:41.050Z,5.07
2018-07-25T23:27:09.830Z,5.10
2018-07-25T23:29:38.553Z,14.43
2018-07-25T23:32:07.243Z,18.27
2018-07-25T23:34:36.062Z,16.00
2018-07-25T23:37:04.843Z,12.47
2018-07-25T23:39:33.514Z,13.10
2018-07-25T23:42:02.251Z,8.40
2018-07-25T23:44:31.759Z,7.80
2018-07-25T23:47:00.458Z,6.23
2018-07-25T23:49:29.063Z,9.03
2018-07-25T23:51:57.851Z,6.30
2018-07-25T23:54:26.433Z,7.20
2018-07-25T23:56:55.148Z,7.47
2018-07-25T23:59:23.939Z,6.27
